createdAt,value
2018-11-14T00:00:13.168Z,65.604
2018-11-14T00:00:29.558Z,65.626
2018-11-14T00:00:45.960Z,65.573
2018-11-14T00:01:02.400Z,65.615
2018-11-14T00:01:18.752Z,65.573
2018-11-14T00:01:35.134Z,65.586
2018-11-14T00:01:51.501Z,65.575
2018-11-14T00:02:08.159Z,65.477
2018-11-14T00:02:24.544Z,65.572
2018-11-14T00:02:40.910Z,65.584
2018-11-14T00:02:57.275Z,65.572
2018-11-14T00:03:13.683Z,65.531
2018-11-14T00:03:30.062Z,65.658
2018-11-14T00:03:46.473Z,65.678
2018-11-14T00:04:02.835Z,65.75
2018-11-14T00:04:19.196Z,65.718
2018-11-14T00:04:35.823Z,65.739
2018-11-14T00:04:52.181Z,65.794
2018-11-14T00:05:08.532Z,65.771
2018-11-14T00:05:24.923Z,65.761
2018-11-14T00:05:41.305Z,65.706
2018-11-14T00:05:57.677Z,65.697
2018-11-14T00:06:14.117Z,65.794
2018-11-14T00:06:30.489Z,65.792
2018-11-14T00:06:46.871Z,65.739
2018-11-14T00:07:03.243Z,65.812
2018-11-14T00:07:19.967Z,65.739
2018-11-14T00:07:36.322Z,65.823
2018-11-14T00:07:52.692Z,65.833
2018-11-14T00:08:09.094Z,65.897
2018-11-14T00:08:25.456Z,65.864
2018-11-14T00:08:41.854Z,65.758
2018-11-14T00:08:58.269Z,65.875
2018-11-14T00:09:14.631Z,65.822
2018-11-14T00:09:31.199Z,65.844
2018-11-14T00:09:48.014Z,65.833
2018-11-14T00:10:04.589Z,65.736
2018-11-14T00:10:21.224Z,65.546
2018-11-14T00:10:37.591Z,65.687
2018-11-14T00:10:53.989Z,65.677
2018-11-14T00:11:10.425Z,65.473
2018-11-14T00:11:26.780Z,65.504
2018-11-14T00:11:43.156Z,65.567
2018-11-14T00:11:59.533Z,65.557
2018-11-14T00:12:15.877Z,65.653
2018-11-14T00:12:32.507Z,65.557
2018-11-14T00:12:48.861Z,65.396
2018-11-14T00:13:05.222Z,65.429
2018-11-14T00:13:21.582Z,65.559
2018-11-14T00:13:37.972Z,65.524
2018-11-14T00:13:54.339Z,65.404
2018-11-14T00:14:10.707Z,65.599
2018-11-14T00:14:27.083Z,65.618
2018-11-14T00:14:43.463Z,65.585
2018-11-14T00:14:59.815Z,65.726
2018-11-14T00:15:16.202Z,65.756
2018-11-14T00:15:32.590Z,65.701
2018-11-14T00:15:48.966Z,65.668
2018-11-14T00:16:05.329Z,65.724
2018-11-14T00:16:21.693Z,65.787
2018-11-14T00:16:38.072Z,65.732
2018-11-14T00:16:54.461Z,65.871
2018-11-14T00:17:10.864Z,65.851
2018-11-14T00:17:27.205Z,65.729
2018-11-14T00:17:43.867Z,65.818
2018-11-14T00:18:00.241Z,65.86
2018-11-14T00:18:16.630Z,65.753
2018-11-14T00:18:32.988Z,65.764
2018-11-14T00:18:49.429Z,65.688
2018-11-14T00:19:05.810Z,65.751
2018-11-14T00:19:22.303Z,65.826
2018-11-14T00:19:39.159Z,65.806
2018-11-14T00:19:56.388Z,65.653
2018-11-14T00:20:12.880Z,65.72
2018-11-14T00:20:30.317Z,65.764
2018-11-14T00:20:46.676Z,65.698
2018-11-14T00:21:03.063Z,65.827
2018-11-14T00:21:19.430Z,65.815
2018-11-14T00:21:35.825Z,65.803
2018-11-14T00:21:52.208Z,65.909
2018-11-14T00:22:08.595Z,65.8
2018-11-14T00:22:24.983Z,65.909
2018-11-14T00:22:41.387Z,65.834
2018-11-14T00:22:58.047Z,65.855
2018-11-14T00:23:14.472Z,65.737
2018-11-14T00:23:30.887Z,65.857
2018-11-14T00:23:47.249Z,65.813
2018-11-14T00:24:03.656Z,65.771
2018-11-14T00:24:20.147Z,65.748
2018-11-14T00:24:36.766Z,65.836
2018-11-14T00:24:54.884Z,65.824
2018-11-14T00:25:11.431Z,65.813
2018-11-14T00:25:27.807Z,65.792
2018-11-14T00:25:44.167Z,65.844
2018-11-14T00:26:00.601Z,65.758
2018-11-14T00:26:16.982Z,65.811
2018-11-14T00:26:33.472Z,65.853
2018-11-14T00:26:50.633Z,65.811
2018-11-14T00:27:08.789Z,65.972
2018-11-14T00:27:25.208Z,65.875
2018-11-14T00:27:41.707Z,65.906
2018-11-14T00:27:58.816Z,65.917
2018-11-14T00:28:15.649Z,65.906
2018-11-14T00:28:32.029Z,66.043
2018-11-14T00:28:48.391Z,65.989
2018-11-14T00:29:04.755Z,65.966
2018-11-14T00:29:21.299Z,66.032
2018-11-14T00:29:37.909Z,66.01
2018-11-14T00:29:54.297Z,66.023
2018-11-14T00:30:10.701Z,65.913
2018-11-14T00:30:27.086Z,65.861
2018-11-14T00:30:45.505Z,65.948
2018-11-14T00:31:03.873Z,65.989
2018-11-14T00:31:22.230Z,65.924
2018-11-14T00:31:40.592Z,65.913
2018-11-14T00:31:58.964Z,66.021
2018-11-14T00:32:17.388Z,65.956
2018-11-14T00:32:35.759Z,65.979
2018-11-14T00:32:54.210Z,65.958
2018-11-14T00:33:13.121Z,66
2018-11-14T00:33:32.235Z,65.979
2018-11-14T00:33:50.636Z,66.01
2018-11-14T00:34:09.023Z,66.01
2018-11-14T00:34:27.802Z,66.126
2018-11-14T00:34:46.933Z,66.156
2018-11-14T00:35:05.457Z,66.061
2018-11-14T00:35:23.869Z,66.146
2018-11-14T00:35:42.531Z,66.123
2018-11-14T00:36:01.240Z,66.135
2018-11-14T00:36:19.635Z,66.175
2018-11-14T00:36:38.008Z,66.049
2018-11-14T00:36:57.608Z,65.866
2018-11-14T00:37:15.970Z,66.072
2018-11-14T00:37:34.355Z,66.007
2018-11-14T00:37:52.728Z,65.996
2018-11-14T00:38:11.128Z,66.019
2018-11-14T00:38:29.759Z,65.966
2018-11-14T00:38:48.134Z,66.041
2018-11-14T00:39:06.526Z,66.019
2018-11-14T00:39:24.931Z,65.997
2018-11-14T00:39:43.346Z,66.007
2018-11-14T00:40:01.776Z,65.963
2018-11-14T00:40:20.174Z,66.07
2018-11-14T00:40:38.540Z,66.081
2018-11-14T00:40:56.974Z,66.164
2018-11-14T00:41:15.392Z,66.13
2018-11-14T00:41:33.785Z,66.056
2018-11-14T06:51:11.022Z,72.94
2018-11-14T06:51:27.445Z,69.044
2018-11-14T06:51:43.952Z,67.679
2018-11-14T06:52:00.365Z,66.935
2018-11-14T06:52:16.732Z,66.778
2018-11-14T06:52:33.120Z,66.749
2018-11-14T06:52:49.535Z,67.005
2018-11-14T06:53:05.932Z,67.17
2018-11-14T06:53:22.329Z,67.421
2018-11-14T06:53:38.716Z,67.598
2018-11-14T06:53:55.110Z,67.679
2018-11-14T06:54:11.510Z,67.824
2018-11-14T06:54:27.897Z,67.958
2018-11-14T06:54:44.283Z,68.093
2018-11-14T06:55:00.660Z,68.132
2018-11-14T06:55:17.039Z,68.227
2018-11-14T06:55:33.421Z,68.236
2018-11-14T06:55:49.870Z,68.342
2018-11-14T06:56:06.230Z,68.393
2018-11-14T06:56:22.862Z,68.442
2018-11-14T06:56:39.250Z,68.432
2018-11-14T06:56:55.617Z,68.57
2018-11-14T06:57:12.021Z,68.555
2018-11-14T06:57:28.646Z,68.426
2018-11-14T06:57:45.200Z,68.523
2018-11-14T06:58:01.562Z,68.598
2018-11-14T06:58:17.932Z,68.662
2018-11-14T06:58:34.393Z,68.597
2018-11-14T06:58:51.411Z,68.618
2018-11-14T06:59:08.802Z,68.649
2018-11-14T06:59:26.598Z,68.702
2018-11-14T06:59:43.850Z,68.682
2018-11-14T07:00:00.500Z,68.659
2018-11-14T07:00:16.858Z,68.712
2018-11-14T07:00:33.265Z,68.668
2018-11-14T07:00:49.651Z,68.742
2018-11-14T07:01:06.046Z,68.72
2018-11-14T07:01:22.425Z,68.676
2018-11-14T07:01:39.064Z,68.845
2018-11-14T07:01:55.406Z,68.826
2018-11-14T07:02:11.759Z,68.826
2018-11-14T07:02:28.170Z,68.847
2018-11-14T07:02:44.546Z,68.739
2018-11-14T07:03:00.951Z,68.794
2018-11-14T07:03:17.473Z,68.76
2018-11-14T07:03:34.111Z,68.845
2018-11-14T07:03:50.508Z,68.823
2018-11-14T07:04:06.885Z,68.822
2018-11-14T07:04:23.252Z,68.855
2018-11-14T07:04:39.633Z,68.778
2018-11-14T07:04:56.215Z,68.854
2018-11-14T07:05:13.504Z,68.896
2018-11-14T07:05:30.914Z,68.432
2018-11-14T07:05:48.499Z,65.639
2018-11-14T07:06:06.443Z,62.59
2018-11-14T07:06:24.095Z,60.841
2018-11-14T07:06:40.747Z,60.453
2018-11-14T07:06:57.111Z,60.688
2018-11-14T07:07:13.480Z,60.816
2018-11-14T07:07:29.862Z,59.651
2018-11-14T07:07:46.233Z,59.535
2018-11-14T07:08:02.639Z,59.707
2018-11-14T07:08:19.020Z,59.991
2018-11-14T07:08:35.382Z,60.073
2018-11-14T07:08:51.778Z,59.801
2018-11-14T07:09:08.155Z,60.278
2018-11-14T07:09:24.522Z,60.417
2018-11-14T07:09:40.924Z,59.907
2018-11-14T07:09:57.292Z,60.028
2018-11-14T07:10:13.689Z,59.368
2018-11-14T07:10:30.081Z,59.704
2018-11-14T07:10:46.585Z,59.228
2018-11-14T07:11:03.410Z,59.043
2018-11-14T07:11:19.976Z,58.61
2018-11-14T07:11:36.332Z,58.415
2018-11-14T07:11:52.950Z,58.503
2018-11-14T07:12:09.333Z,58.593
2018-11-14T07:12:25.701Z,58.52
2018-11-14T07:12:42.084Z,58.584
2018-11-14T07:12:58.511Z,57.947
2018-11-14T07:13:14.922Z,57.923
2018-11-14T07:13:31.289Z,57.741
2018-11-14T07:13:47.648Z,57.827
2018-11-14T07:14:04.007Z,57.426
2018-11-14T07:14:20.353Z,57.784
2018-11-14T07:14:36.729Z,57.352
2018-11-14T07:14:53.081Z,57.394
2018-11-14T07:15:09.446Z,56.938
2018-11-14T07:15:25.818Z,57.223
2018-11-14T07:15:42.165Z,57.266
2018-11-14T07:15:58.516Z,56.973
2018-11-14T07:16:14.879Z,56.854
2018-11-14T07:16:31.258Z,56.713
2018-11-14T07:16:47.626Z,56.18
2018-11-14T07:17:04.270Z,55.796
2018-11-14T07:17:20.700Z,55.956
2018-11-14T07:17:37.233Z,55.8
2018-11-14T07:17:53.905Z,56.2
2018-11-14T07:18:10.493Z,55.696
2018-11-14T07:18:26.873Z,56.27
2018-11-14T07:18:43.230Z,56.16
2018-11-14T07:18:59.581Z,55.65
2018-11-14T07:19:15.934Z,55.554
2018-11-14T07:19:32.306Z,55.337
2018-11-14T07:19:48.657Z,55.424
2018-11-14T07:20:05.044Z,55.554
2018-11-14T07:20:21.416Z,55.086
2018-11-14T07:20:37.782Z,55.432
2018-11-14T07:20:54.132Z,55.529
2018-11-14T07:21:10.475Z,55.856
2018-11-14T07:21:27.106Z,56.328
2018-11-14T07:21:43.528Z,56.266
2018-11-14T07:21:59.897Z,56.735
2018-11-14T07:22:16.540Z,56.925
2018-11-14T07:22:32.894Z,56.689
2018-11-14T07:22:49.248Z,56.976
2018-11-14T07:23:05.604Z,57.173
2018-11-14T07:23:21.991Z,57.351
2018-11-14T07:23:38.489Z,57.68
2018-11-14T07:23:54.924Z,57.943
2018-11-14T07:24:11.295Z,58.185
2018-11-14T07:24:27.786Z,58.536
2018-11-14T07:24:45.025Z,59.148
2018-11-14T07:25:01.977Z,59.315
2018-11-14T07:25:18.385Z,59.328
2018-11-14T07:25:34.760Z,59.289
2018-11-14T07:25:51.125Z,59.489
2018-11-14T07:26:07.477Z,59.896
2018-11-14T07:26:23.853Z,59.974
2018-11-14T07:26:40.221Z,60.726
2018-11-14T07:26:56.598Z,60.653
2018-11-14T07:27:12.960Z,60.605
2018-11-14T07:27:29.593Z,60.686
2018-11-14T07:27:45.919Z,60.783
2018-11-14T07:28:02.269Z,60.906
2018-11-14T07:28:18.658Z,60.703
2018-11-14T07:28:35.025Z,60.554
2018-11-14T07:28:51.406Z,61.052
2018-11-14T07:29:07.759Z,61.129
2018-11-14T07:29:24.109Z,61.109
2018-11-14T07:29:40.501Z,61.229
2018-11-14T07:29:56.852Z,61.391
2018-11-14T07:30:13.238Z,61.338
2018-11-14T07:30:29.692Z,61.316
2018-11-14T07:30:46.063Z,61.445
2018-11-14T07:31:02.445Z,61.51
2018-11-14T07:31:18.831Z,61.749
2018-11-14T07:31:35.179Z,61.802
2018-11-14T07:31:51.557Z,61.727
2018-11-14T07:32:08.189Z,61.899
2018-11-14T07:32:24.838Z,62.053
2018-11-14T07:32:41.490Z,62.106
2018-11-14T07:32:57.890Z,62.248
2018-11-14T07:33:14.275Z,62.217
2018-11-14T07:33:30.652Z,62.421
2018-11-14T07:33:47.042Z,62.357
2018-11-14T07:34:03.459Z,62.305
2018-11-14T07:34:19.843Z,62.445
2018-11-14T07:34:36.197Z,62.392
2018-11-14T07:34:52.529Z,62.456
2018-11-14T07:35:08.917Z,62.557
2018-11-14T07:35:25.313Z,62.611
2018-11-14T07:35:41.683Z,62.504
2018-11-14T07:35:58.090Z,62.646
2018-11-14T07:36:14.469Z,62.831
2018-11-14T07:36:31.102Z,62.8
2018-11-14T07:36:47.496Z,62.856
2018-11-14T07:37:03.872Z,62.813
2018-11-14T07:37:20.248Z,62.857
2018-11-14T07:37:37.233Z,62.913
2018-11-14T07:37:54.358Z,63.011
2018-11-14T07:38:11.131Z,62.892
2018-11-14T07:38:27.467Z,63.033
2018-11-14T07:38:43.824Z,63.142
2018-11-14T07:39:00.250Z,63.133
2018-11-14T07:39:16.644Z,63.285
2018-11-14T07:39:32.967Z,63.233
2018-11-14T07:39:49.302Z,63.104
2018-11-14T07:40:05.686Z,63.191
2018-11-14T07:40:22.069Z,63.3
2018-11-14T07:40:38.429Z,63.41
2018-11-14T07:40:54.760Z,63.596
2018-11-14T07:41:11.098Z,63.499
2018-11-14T07:41:27.512Z,63.488
2018-11-14T07:41:43.885Z,63.468
2018-11-14T07:42:00.264Z,63.59
2018-11-14T07:42:16.651Z,63.581
2018-11-14T07:42:33.010Z,63.569
2018-11-14T07:42:49.393Z,63.538
2018-11-14T07:43:06.035Z,63.658
2018-11-14T07:43:22.543Z,63.747
2018-11-14T07:43:39.464Z,63.628
2018-11-14T07:43:56.176Z,63.554
2018-11-14T07:44:12.562Z,63.676
2018-11-14T07:44:28.914Z,63.687
2018-11-14T07:44:45.274Z,63.818
2018-11-14T07:45:01.672Z,63.742
2018-11-14T07:45:18.041Z,63.679
2018-11-14T07:45:34.375Z,63.799
2018-11-14T07:45:50.721Z,63.743
2018-11-14T07:46:07.079Z,63.798
2018-11-14T07:46:23.453Z,63.693
2018-11-14T07:46:39.859Z,63.803
2018-11-14T07:46:56.226Z,63.781
2018-11-14T07:47:12.580Z,63.825
2018-11-14T07:47:28.929Z,63.935
2018-11-14T07:47:45.282Z,63.829
2018-11-14T07:48:01.648Z,63.894
2018-11-14T07:48:18.293Z,63.97
2018-11-14T07:48:34.677Z,63.896
2018-11-14T07:48:51.173Z,63.738
2018-11-14T07:49:08.294Z,63.934
2018-11-14T07:49:25.033Z,63.944
2018-11-14T07:49:41.390Z,63.879
2018-11-14T07:49:57.988Z,63.827
2018-11-14T07:50:15.037Z,63.925
2018-11-14T07:50:32.006Z,64.034
2018-11-14T07:50:48.373Z,64.014
2018-11-14T07:51:04.768Z,64.003
2018-11-14T07:51:22.207Z,64.102
2018-11-14T07:51:38.857Z,64.062
2018-11-14T07:51:55.209Z,64.139
2018-11-14T07:52:11.566Z,64.041
2018-11-14T07:52:27.958Z,64.161
2018-11-14T07:52:44.330Z,64.163
2018-11-14T07:53:00.675Z,64.08
2018-11-14T07:53:17.269Z,64.135
2018-11-14T07:53:34.111Z,64.007
2018-11-14T07:53:50.494Z,64.083
2018-11-14T07:54:06.865Z,64.081
2018-11-14T07:54:23.398Z,64.038
2018-11-14T07:54:40.017Z,64.104
2018-11-14T07:54:56.648Z,64.159
2018-11-14T07:55:13.027Z,64.097
2018-11-14T07:55:29.371Z,64.097
2018-11-14T07:55:45.738Z,64.237
2018-11-14T07:56:02.105Z,64.228
2018-11-14T07:56:18.476Z,64.101
2018-11-14T07:56:34.852Z,64.241
2018-11-14T07:56:51.235Z,64.23
2018-11-14T07:57:07.628Z,64.201
2018-11-14T07:57:23.966Z,64.125
2018-11-14T07:57:40.369Z,64.277
2018-11-14T07:57:56.752Z,64.354
2018-11-14T07:58:13.143Z,64.289
2018-11-14T07:58:29.491Z,64.226
2018-11-14T07:58:46.136Z,64.302
2018-11-14T07:59:02.495Z,64.292
2018-11-14T07:59:18.897Z,64.152
2018-11-14T07:59:35.256Z,64.209
2018-11-14T07:59:51.654Z,64.199
2018-11-14T08:00:08.052Z,64.225
2018-11-14T08:00:24.409Z,64.268
2018-11-14T08:00:40.773Z,64.233
2018-11-14T08:00:57.156Z,64.275
2018-11-14T08:01:13.551Z,64.333
2018-11-14T08:01:29.950Z,64.312
2018-11-14T08:01:46.329Z,64.304
2018-11-14T08:02:02.917Z,64.407
2018-11-14T08:02:20.074Z,64.452
2018-11-14T08:02:37.009Z,64.271
2018-11-14T08:02:53.381Z,64.145
2018-11-14T08:03:09.788Z,64.2
2018-11-14T08:03:26.165Z,64.155
2018-11-14T08:03:42.536Z,64.104
2018-11-14T08:03:59.217Z,64.223
2018-11-14T08:04:15.582Z,64.211
2018-11-14T08:04:31.991Z,64.223
2018-11-14T08:04:48.331Z,64.291
2018-11-14T08:05:04.710Z,64.344
2018-11-14T08:05:21.095Z,64.365
2018-11-14T08:05:37.453Z,64.345
2018-11-14T08:05:53.834Z,64.454
2018-11-14T08:06:10.231Z,64.399
2018-11-14T08:06:26.664Z,64.53
2018-11-14T08:06:43.286Z,64.583
2018-11-14T08:06:59.669Z,64.541
2018-11-14T08:07:16.021Z,64.486
2018-11-14T08:07:32.539Z,64.486
2018-11-14T08:07:49.368Z,64.479
2018-11-14T08:08:06.436Z,64.534
2018-11-14T08:08:23.247Z,64.468
2018-11-14T08:08:39.887Z,64.577
2018-11-14T08:08:56.265Z,64.587
2018-11-14T08:09:12.893Z,64.566
2018-11-14T08:09:29.235Z,64.557
2018-11-14T08:09:45.600Z,64.462
2018-11-14T08:10:02.032Z,64.528
2018-11-14T08:10:18.432Z,64.518
2018-11-14T08:10:34.816Z,64.521
2018-11-14T08:10:51.179Z,64.553
2018-11-14T08:11:07.532Z,64.565
2018-11-14T08:11:23.904Z,64.576
2018-11-14T08:11:40.294Z,64.642
2018-11-14T08:11:56.644Z,64.503
2018-11-14T08:12:12.998Z,64.524
2018-11-14T08:12:29.365Z,64.503
2018-11-14T08:12:45.768Z,64.601
2018-11-14T08:13:02.199Z,64.568
2018-11-14T08:13:18.531Z,64.58
2018-11-14T08:13:34.887Z,64.624
2018-11-14T08:13:51.254Z,64.583
2018-11-14T08:14:07.605Z,64.551
2018-11-14T08:14:24.282Z,64.562
2018-11-14T08:14:40.666Z,64.586
2018-11-14T08:14:57.045Z,64.51
2018-11-14T08:15:13.506Z,64.542
2018-11-14T08:15:29.863Z,64.628
2018-11-14T08:15:46.243Z,64.606
2018-11-14T08:16:02.592Z,64.716
2018-11-14T08:16:19.020Z,64.609
2018-11-14T08:16:35.392Z,64.665
2018-11-14T08:16:51.714Z,64.654
2018-11-14T08:17:08.065Z,64.687
2018-11-14T08:17:24.378Z,64.677
2018-11-14T08:17:40.746Z,64.625
2018-11-14T08:17:57.109Z,64.647
2018-11-14T08:18:13.449Z,64.625
2018-11-14T08:18:29.868Z,64.616
2018-11-14T08:18:46.508Z,64.617
2018-11-14T08:19:03.689Z,64.618
2018-11-14T08:19:20.473Z,64.576
2018-11-14T08:19:37.152Z,64.639
2018-11-14T08:19:53.538Z,64.492
2018-11-14T08:20:09.961Z,64.558
2018-11-14T08:20:26.332Z,64.568
2018-11-14T08:20:42.689Z,64.623
2018-11-14T08:20:59.045Z,64.645
2018-11-14T08:21:15.405Z,64.581
2018-11-14T08:21:31.825Z,64.61
2018-11-14T08:21:48.456Z,64.972
2018-11-14T08:22:04.864Z,64.692
2018-11-14T08:22:21.239Z,64.63
2018-11-14T08:22:37.630Z,64.564
2018-11-14T08:22:54.023Z,64.589
2018-11-14T08:23:10.393Z,64.657
2018-11-14T08:23:26.774Z,64.667
2018-11-14T08:23:43.142Z,64.497
2018-11-14T08:23:59.618Z,64.411
2018-11-14T08:24:15.978Z,64.314
2018-11-14T08:24:32.346Z,64.411
2018-11-14T08:24:49.110Z,64.453
2018-11-14T08:25:05.937Z,64.562
2018-11-14T08:25:22.646Z,64.53
2018-11-14T08:25:39.021Z,64.582
2018-11-14T08:25:55.378Z,64.582
2018-11-14T08:26:11.789Z,64.593
2018-11-14T08:26:28.146Z,64.509
2018-11-14T08:26:44.494Z,64.584
2018-11-14T08:27:00.895Z,64.53
2018-11-14T08:27:17.267Z,64.587
2018-11-14T08:27:33.636Z,64.62
2018-11-14T08:27:50.017Z,64.663
2018-11-14T08:28:06.403Z,64.641
2018-11-14T08:28:22.833Z,64.663
2018-11-14T08:28:39.254Z,64.77
2018-11-14T08:28:55.651Z,64.813
2018-11-14T08:29:12.061Z,64.803
2018-11-14T08:29:28.461Z,64.717
2018-11-14T08:29:44.873Z,64.894
2018-11-14T08:30:01.495Z,64.721
2018-11-14T08:30:17.891Z,64.839
2018-11-14T08:30:34.502Z,64.816
2018-11-14T08:30:51.054Z,64.799
2018-11-14T08:31:07.457Z,64.81
2018-11-14T08:31:23.838Z,64.758
2018-11-14T08:31:40.210Z,64.736
2018-11-14T08:31:56.593Z,64.671
2018-11-14T08:32:12.980Z,64.703
2018-11-14T08:32:29.503Z,64.703
2018-11-14T08:32:47.927Z,64.757
2018-11-14T08:33:06.300Z,64.705
2018-11-14T08:33:24.693Z,64.686
2018-11-14T08:33:43.036Z,64.79
2018-11-14T08:34:01.382Z,64.79
2018-11-14T08:34:19.808Z,64.695
2018-11-14T08:34:38.175Z,64.759
2018-11-14T08:34:56.548Z,64.708
2018-11-14T08:35:15.184Z,64.739
2018-11-14T08:35:33.564Z,64.748
2018-11-14T08:35:51.954Z,64.719
2018-11-14T08:36:10.381Z,64.753
2018-11-14T08:36:28.853Z,64.743
2018-11-14T08:36:47.214Z,64.688
2018-11-14T08:37:06.052Z,64.795
2018-11-14T08:37:24.469Z,64.786
2018-11-14T08:37:42.837Z,64.819
2018-11-14T08:38:01.230Z,64.715
2018-11-14T08:38:19.613Z,64.682
2018-11-14T08:38:37.995Z,64.734
2018-11-14T08:38:56.409Z,64.715
2018-11-14T08:39:15.058Z,64.715
2018-11-14T08:39:33.883Z,64.777
2018-11-14T08:39:52.286Z,64.746
2018-11-14T08:40:10.667Z,64.703
2018-11-14T08:40:29.329Z,64.781
2018-11-14T08:40:47.765Z,64.706
2018-11-14T08:41:06.203Z,64.715
2018-11-14T08:41:24.567Z,64.771
2018-11-14T08:41:42.985Z,64.771
2018-11-14T08:42:01.355Z,64.834
2018-11-14T08:42:19.730Z,64.867
2018-11-14T08:42:38.104Z,64.848
2018-11-14T08:42:56.475Z,64.688
2018-11-14T08:43:14.844Z,64.691
2018-11-14T08:43:33.219Z,64.628
2018-11-14T08:43:51.606Z,64.681
2018-11-14T20:37:53.471Z,66.145
2018-11-14T20:38:09.853Z,66.242
2018-11-14T20:38:26.221Z,66.329
2018-11-14T20:38:42.591Z,66.521
2018-11-14T20:38:58.951Z,66.664
2018-11-14T20:39:15.296Z,66.873
2018-11-14T20:39:31.660Z,67.057
2018-11-14T20:39:47.998Z,67.493
2018-11-14T20:40:04.345Z,67.635
2018-11-14T20:40:20.710Z,67.9
2018-11-14T20:40:37.063Z,67.988
2018-11-14T20:40:53.426Z,68.283
2018-11-14T20:41:09.762Z,68.314
2018-11-14T20:41:26.108Z,68.42
2018-11-14T20:41:42.462Z,68.305
2018-11-14T20:41:58.831Z,68.367
2018-11-14T20:42:15.178Z,68.675
2018-11-14T20:42:31.521Z,68.631
2018-11-14T20:42:48.115Z,68.726
2018-11-14T20:43:05.458Z,68.735
2018-11-14T20:43:22.389Z,68.854
2018-11-14T20:43:38.740Z,68.918
2018-11-14T20:43:55.107Z,68.644
2018-11-14T20:44:11.471Z,68.851
2018-11-14T20:44:27.813Z,68.931
2018-11-14T20:44:44.163Z,69.039
2018-11-14T20:45:00.512Z,69.106
2018-11-14T20:45:16.891Z,69.084
2018-11-14T20:45:33.280Z,69.097
2018-11-14T20:45:49.684Z,68.95
2018-11-14T20:46:06.053Z,69.034
2018-11-14T20:46:22.404Z,69.002
2018-11-14T20:46:38.749Z,69.015
2018-11-14T20:46:55.096Z,69.062
2018-11-14T20:47:11.481Z,68.998
2018-11-14T20:47:27.847Z,68.838
2018-11-14T20:47:44.206Z,68.825
2018-11-14T20:48:00.551Z,68.955
2018-11-14T20:48:17.175Z,68.972
2018-11-14T20:48:33.546Z,68.932
2018-11-14T20:48:49.916Z,68.915
2018-11-14T20:49:06.551Z,69.045
2018-11-14T20:49:23.240Z,68.731
2018-11-14T20:49:39.588Z,68.841
2018-11-14T20:49:55.957Z,68.807
2018-11-14T20:50:12.318Z,68.869
2018-11-14T20:50:28.685Z,68.9
2018-11-14T20:50:45.054Z,68.87
2018-11-14T20:51:01.444Z,68.869
2018-11-14T20:51:17.853Z,68.924
2018-11-14T20:51:34.195Z,68.817
2018-11-14T20:51:50.561Z,68.71
2018-11-14T20:52:06.978Z,68.731
2018-11-14T20:52:23.329Z,68.805
2018-11-14T20:52:39.679Z,68.985
2018-11-14T20:52:56.290Z,68.975
2018-11-14T20:53:12.638Z,68.917
2018-11-14T20:53:29.277Z,68.822
2018-11-14T20:53:45.653Z,68.972
2018-11-14T20:54:02.079Z,68.809
2018-11-14T20:54:18.431Z,68.697
2018-11-14T20:54:34.779Z,68.729
2018-11-14T20:54:51.119Z,68.894
2018-11-14T20:55:07.471Z,68.82
2018-11-14T20:55:23.840Z,68.882
2018-11-14T20:55:40.441Z,69.06
2018-11-14T20:55:56.994Z,69.05
2018-11-14T20:56:13.502Z,69.152
2018-11-14T20:56:30.228Z,69.137
2018-11-14T20:56:46.977Z,69.047
2018-11-14T20:57:03.356Z,68.929
2018-11-14T20:57:19.744Z,68.989
2018-11-14T20:57:36.104Z,69.04
2018-11-14T20:57:52.445Z,68.856
2018-11-14T20:58:08.802Z,68.862
2018-11-14T20:58:25.179Z,68.882
2018-11-14T20:58:41.795Z,68.839
2018-11-14T20:58:58.148Z,68.9
2018-11-14T20:59:14.500Z,68.953
2018-11-14T20:59:30.882Z,69.133
2018-11-14T20:59:47.255Z,69.233
2018-11-14T21:00:03.677Z,69.167
2018-11-14T21:00:20.066Z,69.176
2018-11-14T21:00:36.522Z,69.23
2018-11-14T21:00:52.920Z,69.176
2018-11-14T21:01:09.276Z,69.091
2018-11-14T21:01:25.636Z,69.252
2018-11-14T21:01:42.027Z,69.095
2018-11-14T21:01:58.411Z,69.093
2018-11-14T21:02:14.771Z,68.936
2018-11-14T21:02:31.127Z,69.14
2018-11-14T21:02:49.167Z,69.031
2018-11-14T21:03:05.779Z,68.967
2018-11-14T21:03:22.743Z,69.008
2018-11-14T21:03:39.622Z,69.061
2018-11-14T21:03:56.278Z,69.045
2018-11-14T21:04:12.629Z,69.146
2018-11-14T21:04:29.088Z,69.157
2018-11-14T21:04:45.443Z,69.029
2018-11-14T21:05:01.812Z,69.173
2018-11-14T21:05:18.217Z,69.105
2018-11-14T21:05:34.857Z,68.982
2018-11-14T21:05:51.973Z,68.979
2018-11-14T21:06:08.938Z,68.992
2018-11-14T21:06:25.493Z,68.941
2018-11-14T21:06:41.877Z,68.972
2018-11-14T21:06:58.242Z,69.063
2018-11-14T21:07:14.675Z,69.02
2018-11-14T21:07:31.091Z,68.823
2018-11-14T21:07:47.474Z,68.918
2018-11-14T21:08:04.104Z,68.865
2018-11-14T21:08:20.466Z,68.854
2018-11-14T21:08:36.893Z,68.74
2018-11-14T21:08:53.295Z,68.841
2018-11-14T21:09:09.907Z,69.16
2018-11-14T21:09:26.428Z,69.182
2018-11-14T21:09:43.327Z,69.14
2018-11-14T21:10:00.290Z,68.849
2018-11-14T21:10:16.707Z,68.809
2018-11-14T21:10:33.107Z,69.012
2018-11-14T21:10:49.712Z,68.864
2018-11-14T21:11:06.228Z,68.927
2018-11-14T21:11:22.601Z,69.004
2018-11-14T21:11:38.993Z,69.043
2018-11-14T21:11:55.377Z,69.066
2018-11-14T21:12:11.727Z,68.93
2018-11-14T21:12:28.082Z,68.807
2018-11-14T21:12:44.444Z,68.896
2018-11-14T21:13:00.850Z,68.983
2018-11-14T21:13:17.230Z,68.791
2018-11-14T21:13:33.578Z,68.844
2018-11-14T21:13:50.009Z,68.927
2018-11-14T21:14:06.372Z,68.948
2018-11-14T21:14:22.992Z,68.987
2018-11-14T21:14:39.368Z,69.104
2018-11-14T21:14:55.740Z,68.809
2018-11-14T21:15:12.430Z,68.946
2018-11-14T21:15:29.514Z,69.077
2018-11-14T21:15:45.870Z,68.964
2018-11-14T21:16:02.319Z,68.965
2018-11-14T21:16:18.928Z,68.95
2018-11-14T21:16:35.297Z,68.874
2018-11-14T21:16:51.669Z,68.816
2018-11-14T21:17:08.095Z,68.667
2018-11-14T21:17:24.446Z,65.961
2018-11-14T21:17:40.837Z,66.492
2018-11-14T21:17:57.215Z,63.78
2018-11-14T21:18:13.584Z,61.791
2018-11-14T21:18:29.966Z,60.925
2018-11-14T21:18:46.325Z,59.664
2018-11-14T21:19:02.729Z,58.176
2018-11-14T21:19:19.122Z,57.023
2018-11-14T21:19:35.778Z,56.019
2018-11-14T21:19:52.140Z,57.89
2018-11-14T21:20:08.514Z,58.02
2018-11-14T21:20:24.915Z,56.866
2018-11-14T21:20:41.288Z,56.176
2018-11-14T21:20:57.643Z,56.43
2018-11-14T21:21:14.003Z,55.896
2018-11-14T21:21:30.386Z,54.715
2018-11-14T21:21:46.742Z,54.982
2018-11-14T21:22:03.208Z,55.253
2018-11-14T21:22:19.561Z,56.144
2018-11-14T21:22:35.911Z,53.408
2018-11-14T21:22:52.581Z,53.61
2018-11-14T21:23:09.849Z,54.337
2018-11-14T21:23:26.510Z,53.521
2018-11-14T21:23:42.915Z,53.657
2018-11-14T21:23:59.274Z,53.272
2018-11-14T21:24:15.625Z,53.542
2018-11-14T21:24:32.003Z,53.441
2018-11-14T21:24:48.628Z,54.154
2018-11-14T21:25:05.018Z,53.986
2018-11-14T21:25:21.412Z,53.396
2018-11-14T21:25:37.792Z,53.593
2018-11-14T21:25:54.181Z,53.212
2018-11-14T21:26:10.553Z,52.789
2018-11-14T21:26:26.913Z,53.239
2018-11-14T21:26:43.281Z,52.983
2018-11-14T21:26:59.663Z,53.942
2018-11-14T21:27:16.029Z,53.474
2018-11-14T21:27:32.372Z,53.021
2018-11-14T21:27:48.731Z,52.441
2018-11-14T21:28:05.089Z,52.387
2018-11-14T21:28:21.448Z,53.286
2018-11-14T21:28:37.823Z,54.283
2018-11-14T21:28:54.189Z,54.439
2018-11-14T21:29:10.543Z,53.516
2018-11-14T21:29:27.095Z,53.08
2018-11-14T21:29:44.004Z,53.419
2018-11-14T21:30:01.044Z,53.329
2018-11-14T21:30:17.440Z,52.791
2018-11-14T21:30:33.821Z,53.188
2018-11-14T21:30:50.203Z,52.633
2018-11-14T21:31:06.561Z,52.794
2018-11-14T21:31:22.911Z,52.895
2018-11-14T21:31:39.262Z,52.972
2018-11-14T21:31:55.604Z,53.107